Archival Weather

Tokyo Intl

Tokyo, Japan (RJTT)

Report from: Tuesday, September 19, 2023 5:30 PM JST
Current time: Wednesday, December 6, 2023 4:10 PM JST

Current weather – Weather history – Daily summaries
Weather forecast

Temperature30.0°C (86.0°F)
Heat index35.2°C (95.4°F)
Dew point24.0°C (75.2°F)
Winds 16 kts (8.2 m/s, 18.4 mph) South (190°)
Visibility6.2 mi. (10 km)
Clouds Few clouds 3,000 ft. (914 m)
Altimeter29.85 in.Hg (1011 mB)
Relative humidity70 %
Density altitude2,194 ft. (669 m)
Remarks No significant changes expected in the next two hours
Flight conditions Visual Meteorological Conditions
Raw dataRJTT 190830Z 19016KT 9999 FEW030 30/24 Q1011 NOSIG
An error has occurred. This application may no longer respond until reloaded. Reload 🗙